Time;durP1;ratioP1;P1;durP2;ratioP2;P2;SDS_P1;SDS_P2;PMS_P1;PMS_P2;Temp;Humidity;BMP_temperature;BMP_pressure;BME280_temperature;BME280_humidity;BME280_pressure;Samples;Min_cycle;Max_cycle;Signal;HPM_P1;HPM_P2
2022/03/16 00:01:14;;;;;;;18.17;11.83;;;;;;;3.58;100.00;101396.25;5052012;28;20263;-70
2022/03/16 00:03:39;;;;;;;19.70;13.53;;;;;;;3.49;100.00;101394.19;5051861;28;20254;-70
2022/03/16 00:06:04;;;;;;;33.43;17.40;;;;;;;3.42;100.00;101399.72;5052116;28;20604;-70
2022/03/16 00:08:31;;;;;;;32.53;17.53;;;;;;;3.52;100.00;101401.81;5051646;28;20225;-70
2022/03/16 00:10:57;;;;;;;36.47;19.73;;;;;;;3.67;100.00;101410.22;5051991;28;20174;-71
2022/03/16 00:13:22;;;;;;;27.67;17.00;;;;;;;3.48;100.00;101414.19;5051684;28;20175;-70
2022/03/16 00:15:48;;;;;;;24.77;16.20;;;;;;;3.33;100.00;101408.44;5051668;28;20194;-70
2022/03/16 00:18:13;;;;;;;32.73;17.60;;;;;;;3.25;100.00;101407.78;5051524;28;20532;-73
2022/03/16 00:20:39;;;;;;;25.97;15.30;;;;;;;3.32;100.00;101415.72;5051444;28;20217;-73
2022/03/16 00:23:05;;;;;;;31.33;17.13;;;;;;;3.16;100.00;101411.88;5051570;28;20202;-72
2022/03/16 00:25:30;;;;;;;29.30;17.03;;;;;;;3.02;100.00;101405.09;5051695;28;20586;-70
2022/03/16 00:27:56;;;;;;;24.73;14.40;;;;;;;2.92;100.00;101413.81;5051068;28;20215;-70
2022/03/16 00:30:21;;;;;;;20.20;14.37;;;;;;;2.84;100.00;101411.47;5051761;28;20178;-70
2022/03/16 00:32:46;;;;;;;20.57;15.03;;;;;;;2.73;100.00;101411.47;5051683;28;20183;-70
2022/03/16 00:35:11;;;;;;;26.83;16.03;;;;;;;2.72;100.00;101413.34;5051351;28;20175;-70
2022/03/16 00:37:37;;;;;;;26.73;15.33;;;;;;;2.68;100.00;101417.59;5051224;28;20512;-70
2022/03/16 00:40:02;;;;;;;26.10;14.50;;;;;;;2.58;100.00;101412.78;5051284;28;20659;-70
2022/03/16 00:42:28;;;;;;;27.77;15.53;;;;;;;2.51;100.00;101419.34;5051334;28;20203;-73
2022/03/16 00:44:54;;;;;;;25.10;14.20;;;;;;;2.43;100.00;101417.00;5051291;28;20179;-73
2022/03/16 00:47:19;;;;;;;24.23;15.77;;;;;;;2.42;100.00;101421.56;5050981;28;20175;-73
2022/03/16 00:49:45;;;;;;;27.03;15.87;;;;;;;2.44;100.00;101424.84;5051119;28;20209;-73
2022/03/16 00:52:10;;;;;;;29.43;16.17;;;;;;;2.54;100.00;101419.69;5051004;28;20179;-72
2022/03/16 00:54:35;;;;;;;36.07;18.77;;;;;;;2.65;100.00;101431.56;5051033;28;20176;-70
2022/03/16 00:57:01;;;;;;;33.50;16.53;;;;;;;2.81;100.00;101422.75;5033490;28;20186;-71
2022/03/16 00:59:26;;;;;;;33.50;16.70;;;;;;;2.77;100.00;101434.25;5047211;28;20188;-70
2022/03/16 01:01:52;;;;;;;23.13;16.13;;;;;;;2.69;100.00;101436.22;5051311;28;20191;-70
2022/03/16 01:04:17;;;;;;;25.47;16.80;;;;;;;2.59;100.00;101433.28;5050802;28;20236;-70
2022/03/16 01:06:42;;;;;;;25.47;16.63;;;;;;;2.58;100.00;101426.25;5051244;28;20178;-70
2022/03/16 01:09:08;;;;;;;21.93;14.40;;;;;;;2.39;100.00;101439.03;5051124;28;20686;-70
2022/03/16 01:11:33;;;;;;;24.60;15.37;;;;;;;2.28;100.00;101434.44;5050859;28;20175;-72
2022/03/16 01:13:59;;;;;;;27.57;16.93;;;;;;;2.34;100.00;101441.63;5051068;28;20187;-73
2022/03/16 01:16:24;;;;;;;33.83;16.80;;;;;;;2.32;100.00;101437.50;5051200;28;20179;-73
2022/03/16 01:18:50;;;;;;;34.40;17.40;;;;;;;2.26;100.00;101436.53;5051041;28;20619;-70
2022/03/16 01:21:15;;;;;;;43.47;20.67;;;;;;;2.48;100.00;101436.00;5050907;28;20171;-70
2022/03/16 01:23:40;;;;;;;43.97;20.70;;;;;;;2.42;100.00;101432.34;5051131;28;20229;-70
2022/03/16 01:26:06;;;;;;;30.00;17.13;;;;;;;2.43;100.00;101423.19;5051119;28;20171;-70
2022/03/16 01:28:32;;;;;;;41.77;19.53;;;;;;;2.51;100.00;101425.56;5050738;28;20666;-71
2022/03/16 01:30:59;;;;;;;39.97;19.87;;;;;;;2.26;100.00;101424.94;5050980;28;20293;-71
2022/03/16 01:33:25;;;;;;;37.47;18.47;;;;;;;2.45;100.00;101434.56;5032763;28;20329;-70
2022/03/16 01:35:50;;;;;;;37.00;19.43;;;;;;;2.44;100.00;101432.94;5051275;28;20631;-71
2022/03/16 01:38:16;;;;;;;30.43;17.47;;;;;;;2.35;100.00;101429.78;5050901;28;20179;-71
2022/03/16 01:40:41;;;;;;;32.93;17.77;;;;;;;2.44;100.00;101432.13;5051276;28;20198;-71
2022/03/16 01:43:06;;;;;;;31.80;18.00;;;;;;;2.34;100.00;101438.09;5050989;28;20175;-71
2022/03/16 01:45:32;;;;;;;29.63;18.43;;;;;;;2.25;100.00;101432.22;5051136;28;20175;-71
2022/03/16 01:47:57;;;;;;;27.93;17.33;;;;;;;2.32;100.00;101435.63;5050630;28;20172;-70
2022/03/16 01:50:23;;;;;;;35.73;18.13;;;;;;;2.51;100.00;101438.22;5050759;28;20454;-71
2022/03/16 01:52:48;;;;;;;31.27;17.43;;;;;;;2.61;100.00;101430.38;5032694;28;20542;-70
2022/03/16 01:55:14;;;;;;;33.83;17.77;;;;;;;2.53;100.00;101442.34;5050549;28;20627;-71
2022/03/16 01:57:44;;;;;;;37.30;18.00;;;;;;;2.21;100.00;101435.59;5050635;28;20182;-71
2022/03/16 02:00:10;;;;;;;24.40;15.53;;;;;;;2.03;100.00;101447.28;5050782;28;20210;-71
2022/03/16 02:02:35;;;;;;;29.57;18.40;;;;;;;2.41;100.00;101443.38;5050455;28;20634;-71
2022/03/16 02:05:01;;;;;;;39.63;17.93;;;;;;;2.52;100.00;101448.78;5050492;28;20175;-71
2022/03/16 02:07:26;;;;;;;35.80;17.90;;;;;;;2.60;100.00;101440.34;5050472;28;20171;-70
2022/03/16 02:09:53;;;;;;;30.30;17.57;;;;;;;2.49;100.00;101446.56;5050471;28;20260;-70
2022/03/16 02:12:18;;;;;;;28.10;16.40;;;;;;;2.34;100.00;101455.09;5050659;28;20183;-70
2022/03/16 02:14:44;;;;;;;29.33;17.30;;;;;;;2.23;100.00;101457.75;5050630;28;20171;-70
2022/03/16 02:17:09;;;;;;;28.70;18.23;;;;;;;2.14;100.00;101453.75;5054044;28;20262;-70
2022/03/16 02:19:35;;;;;;;24.73;16.70;;;;;;;2.15;100.00;101455.38;5053607;28;20182;-70
2022/03/16 02:22:08;;;;;;;37.07;17.07;;;;;;;2.13;100.00;101460.19;5053981;28;20249;-70
2022/03/16 02:24:33;;;;;;;37.07;19.10;;;;;;;2.14;100.00;101462.66;5053877;28;20171;-70
2022/03/16 02:26:59;;;;;;;32.07;18.83;;;;;;;2.25;100.00;101469.13;5053757;28;20716;-71
2022/03/16 02:29:25;;;;;;;39.37;19.37;;;;;;;2.37;100.00;101462.72;5035791;28;20206;-70
2022/03/16 02:31:50;;;;;;;29.53;18.23;;;;;;;2.45;100.00;101463.41;5053892;28;20627;-70
2022/03/16 02:34:16;;;;;;;32.47;18.33;;;;;;;2.48;100.00;101469.19;5054110;28;20284;-70
2022/03/16 02:36:42;;;;;;;43.57;19.07;;;;;;;2.56;100.00;101473.41;5053703;28;20167;-71
2022/03/16 02:39:07;;;;;;;31.53;19.93;;;;;;;2.46;100.00;101474.00;5053663;28;20244;-70
2022/03/16 02:41:33;;;;;;;36.13;18.80;;;;;;;2.41;100.00;101478.44;5053696;28;20199;-70
2022/03/16 02:43:58;;;;;;;35.47;18.83;;;;;;;2.27;100.00;101484.03;5053531;28;20639;-70
2022/03/16 02:46:24;;;;;;;31.90;17.97;;;;;;;2.13;100.00;101479.06;5053449;28;20168;-70
2022/03/16 02:48:49;;;;;;;24.87;15.97;;;;;;;2.16;100.00;101482.09;5053335;28;20203;-70
2022/03/16 02:51:14;;;;;;;31.20;18.17;;;;;;;2.13;100.00;101482.56;5053552;28;20278;-70
2022/03/16 02:53:40;;;;;;;37.60;18.43;;;;;;;2.13;100.00;101487.97;5035823;28;20171;-70
2022/03/16 02:56:07;;;;;;;33.47;19.37;;;;;;;1.96;100.00;101486.97;5056013;28;20638;-70
2022/03/16 02:58:32;;;;;;;33.43;19.13;;;;;;;2.08;100.00;101490.53;5054125;28;20221;-70
2022/03/16 03:00:57;;;;;;;35.17;18.60;;;;;;;1.98;100.00;101487.56;5053540;28;20167;-70
2022/03/16 03:03:23;;;;;;;36.57;21.13;;;;;;;1.65;100.00;101482.63;5053217;28;20207;-71
2022/03/16 03:05:48;;;;;;;33.27;18.10;;;;;;;1.35;100.00;101491.47;5053130;28;20258;-71
2022/03/16 03:08:14;;;;;;;36.13;18.00;;;;;;;1.22;100.00;101491.63;5053337;28;20191;-70
2022/03/16 03:10:39;;;;;;;27.73;16.57;;;;;;;0.99;100.00;101494.13;5053084;28;20674;-71
2022/03/16 03:13:05;;;;;;;21.60;16.60;;;;;;;1.08;100.00;101482.84;5053379;28;20203;-70
2022/03/16 03:15:31;;;;;;;37.90;15.17;;;;;;;1.36;100.00;101478.81;5053293;28;20171;-71
2022/03/16 03:17:56;;;;;;;24.37;14.97;;;;;;;1.46;100.00;101471.88;5052728;28;20179;-70
2022/03/16 03:20:21;;;;;;;28.77;16.20;;;;;;;1.36;100.00;101474.25;5052772;28;20167;-70
2022/03/16 03:22:47;;;;;;;30.37;16.07;;;;;;;1.06;100.00;101468.81;5052816;28;20175;-71
2022/03/16 03:25:14;;;;;;;31.40;18.57;;;;;;;0.92;100.00;101469.16;5052786;28;20171;-70
2022/03/16 03:27:39;;;;;;;33.80;18.20;;;;;;;0.81;100.00;101462.63;5052277;28;20230;-70
2022/03/16 03:30:06;;;;;;;30.27;16.90;;;;;;;0.73;100.00;101455.69;5052735;28;20202;-71
2022/03/16 03:32:32;;;;;;;27.33;17.27;;;;;;;0.50;100.00;101458.97;5052783;28;20233;-70
2022/03/16 03:34:57;;;;;;;34.23;18.17;;;;;;;0.47;100.00;101461.28;5052885;28;20187;-73
2022/03/16 03:37:25;;;;;;;29.67;17.87;;;;;;;0.42;100.00;101458.41;5052372;28;20174;-70
2022/03/16 03:39:51;;;;;;;23.27;16.23;;;;;;;0.39;100.00;101456.19;5052604;28;20528;-69
2022/03/16 03:42:16;;;;;;;28.23;16.70;;;;;;;0.41;100.00;101454.09;5052461;28;20178;-70
2022/03/16 03:44:42;;;;;;;38.70;17.73;;;;;;;0.34;100.00;101450.66;5052387;28;20179;-70
2022/03/16 03:47:09;;;;;;;23.13;16.27;;;;;;;0.44;100.00;101448.31;5052379;28;20586;-71
2022/03/16 03:49:36;;;;;;;23.57;16.27;;;;;;;0.57;100.00;101443.59;5052313;28;20203;-70
2022/03/16 03:52:02;;;;;;;25.60;16.37;;;;;;;0.66;100.00;101436.09;5034480;28;20666;-70
2022/03/16 03:54:28;;;;;;;28.17;16.60;;;;;;;0.69;100.00;101443.72;5052811;28;20579;-70
2022/03/16 03:56:53;;;;;;;20.20;16.93;;;;;;;0.65;100.00;101436.31;5052394;28;20175;-71
2022/03/16 03:59:20;;;;;;;24.33;17.20;;;;;;;0.66;100.00;101429.88;5052120;28;20175;-70
2022/03/16 04:01:46;;;;;;;23.97;17.37;;;;;;;0.76;100.00;101438.28;5052164;28;20179;-70
2022/03/16 04:04:11;;;;;;;19.57;15.60;;;;;;;0.89;100.00;101438.97;5052017;28;20659;-70
2022/03/16 04:06:36;;;;;;;22.27;16.00;;;;;;;1.10;100.00;101439.56;5051991;28;20201;-71
2022/03/16 04:09:02;;;;;;;22.30;16.43;;;;;;;1.25;100.00;101437.31;5051926;28;20210;-70
2022/03/16 04:11:27;;;;;;;19.93;15.97;;;;;;;1.40;100.00;101445.00;5051952;28;20203;-70
2022/03/16 04:13:52;;;;;;;22.77;16.30;;;;;;;1.46;100.00;101457.59;5051918;28;20167;-70
2022/03/16 04:16:18;;;;;;;17.97;15.77;;;;;;;1.57;100.00;101459.50;5051744;28;20524;-70
2022/03/16 04:18:43;;;;;;;19.10;15.33;;;;;;;1.71;100.00;101460.97;5051656;28;20652;-71
2022/03/16 04:21:08;;;;;;;17.70;15.97;;;;;;;1.77;100.00;101462.78;5051537;28;20606;-70
2022/03/16 04:23:34;;;;;;;26.23;17.20;;;;;;;1.57;100.00;101462.19;5051951;28;20190;-71
2022/03/16 04:25:59;;;;;;;18.40;15.53;;;;;;;1.64;100.00;101473.72;5051628;28;20175;-70
2022/03/16 04:28:24;;;;;;;20.77;14.53;;;;;;;1.48;100.00;101474.34;5051434;28;20285;-70
2022/03/16 04:30:51;;;;;;;25.60;15.40;;;;;;;1.54;100.00;101465.34;5051829;28;20179;-70
2022/03/16 04:33:16;;;;;;;23.70;15.47;;;;;;;1.60;100.00;101469.03;5051760;28;20175;-70
2022/03/16 04:35:41;;;;;;;20.27;15.83;;;;;;;1.62;100.00;101467.75;5051508;28;20189;-70
2022/03/16 04:38:08;;;;;;;32.57;21.47;;;;;;;1.51;100.00;101465.81;5050571;28;20172;-70
2022/03/16 04:40:34;;;;;;;28.33;19.17;;;;;;;1.58;100.00;101461.16;5051352;28;20179;-70
2022/03/16 04:42:59;;;;;;;32.90;18.07;;;;;;;1.75;100.00;101462.19;5051263;28;20589;-71
2022/03/16 04:45:25;;;;;;;22.20;15.90;;;;;;;1.82;100.00;101458.56;5051326;28;20179;-71
2022/03/16 04:47:51;;;;;;;17.73;14.37;;;;;;;1.92;100.00;101465.06;5051091;28;20438;-73
2022/03/16 04:50:16;;;;;;;17.20;14.60;;;;;;;1.94;100.00;101459.44;5051185;28;20306;-74
2022/03/16 04:52:43;;;;;;;14.20;12.80;;;;;;;1.91;100.00;101466.13;5051069;28;20244;-73
2022/03/16 04:55:09;;;;;;;17.27;12.20;;;;;;;1.82;100.00;101464.78;5051125;28;20262;-69
2022/03/16 04:57:34;;;;;;;15.30;13.53;;;;;;;1.82;100.00;101459.38;5050865;28;20317;-72
2022/03/16 04:59:59;;;;;;;14.53;13.17;;;;;;;1.78;100.00;101464.41;5051078;28;20205;-71
2022/03/16 05:02:24;;;;;;;15.90;13.10;;;;;;;1.81;100.00;101465.81;5051092;28;20182;-71
2022/03/16 05:04:50;;;;;;;14.93;12.67;;;;;;;1.45;100.00;101472.09;5051055;28;20218;-73
2022/03/16 05:07:15;;;;;;;14.77;12.87;;;;;;;1.21;100.00;101478.38;5051147;28;20234;-73
2022/03/16 05:09:40;;;;;;;15.00;13.50;;;;;;;1.10;100.00;101488.00;5050888;28;20673;-72
2022/03/16 05:12:07;;;;;;;14.97;12.37;;;;;;;1.08;100.00;101490.94;5050938;28;20171;-70
2022/03/16 05:14:32;;;;;;;19.30;14.17;;;;;;;0.96;100.00;101483.81;5051020;28;20214;-72
2022/03/16 05:16:57;;;;;;;14.60;13.23;;;;;;;0.96;100.00;101486.50;5050692;28;20659;-72
2022/03/16 05:19:25;;;;;;;17.53;13.70;;;;;;;0.91;100.00;101491.72;5050705;28;20174;-72
2022/03/16 05:21:50;;;;;;;15.33;13.73;;;;;;;0.76;100.00;101492.06;5050701;28;20183;-72
2022/03/16 05:24:16;;;;;;;14.03;11.10;;;;;;;0.70;100.00;101495.63;5050735;28;20235;-72
2022/03/16 05:26:41;;;;;;;14.00;10.80;;;;;;;0.56;100.00;101501.09;5050870;28;20175;-72
2022/03/16 05:29:07;;;;;;;17.97;11.53;;;;;;;0.39;100.00;101509.94;5050484;28;20674;-72
2022/03/16 05:31:32;;;;;;;24.17;13.13;;;;;;;0.19;100.00;101507.38;5050744;28;20182;-72
2022/03/16 05:33:57;;;;;;;15.30;12.97;;;;;;;0.23;100.00;101503.22;5050655;28;20189;-72
2022/03/16 05:36:23;;;;;;;13.63;12.23;;;;;;;0.27;100.00;101516.00;5050897;28;20175;-72
2022/03/16 05:38:48;;;;;;;18.57;12.87;;;;;;;0.28;100.00;101509.59;5050510;28;20206;-72
2022/03/16 05:41:16;;;;;;;13.00;11.67;;;;;;;0.34;100.00;101517.84;5050480;28;20179;-72
2022/03/16 05:43:42;;;;;;;16.23;14.53;;;;;;;0.32;100.00;101515.38;5050622;28;20171;-73
2022/03/16 05:46:07;;;;;;;16.10;13.93;;;;;;;0.12;100.00;101522.72;5050417;28;20193;-71
2022/03/16 05:48:32;;;;;;;15.50;13.90;;;;;;;0.13;100.00;101524.34;5050312;28;20203;-73
2022/03/16 05:50:58;;;;;;;15.90;14.07;;;;;;;0.20;100.00;101519.78;5054570;28;20203;-73
2022/03/16 05:53:23;;;;;;;13.87;12.47;;;;;;;0.49;100.00;101519.16;5054629;28;20643;-72
2022/03/16 05:55:48;;;;;;;14.77;13.27;;;;;;;0.66;100.00;101522.13;5052459;28;20201;-73
2022/03/16 05:58:14;;;;;;;16.73;14.87;;;;;;;0.74;100.00;101521.06;5048968;28;20191;-72
2022/03/16 06:00:42;;;;;;;16.63;13.40;;;;;;;0.86;100.00;101530.03;5054323;28;20183;-73
2022/03/16 06:03:08;;;;;;;28.10;14.40;;;;;;;0.64;100.00;101534.16;5054603;28;20268;-73
2022/03/16 06:05:33;;;;;;;46.50;15.27;;;;;;;0.51;100.00;101541.28;5054255;28;20219;-73
2022/03/16 06:07:59;;;;;;;20.60;14.93;;;;;;;0.58;100.00;101554.69;5054206;28;20249;-73
2022/03/16 06:10:25;;;;;;;18.10;12.97;;;;;;;0.78;100.00;101549.16;5054298;28;20215;-72
2022/03/16 06:12:57;;;;;;;12.00;10.87;;;;;;;0.77;100.00;101551.03;5054118;28;20625;-73
2022/03/16 06:15:24;;;;;;;21.27;14.70;;;;;;;0.65;100.00;101562.69;5054175;28;20657;-73
2022/03/16 06:17:51;;;;;;;20.23;12.87;;;;;;;0.61;100.00;101570.38;5036044;28;20768;-70
2022/03/16 06:20:17;;;;;;;14.57;13.07;;;;;;;0.68;100.00;101568.47;5053882;28;20178;-71
2022/03/16 06:22:42;;;;;;;16.67;13.90;;;;;;;0.69;100.00;101571.97;5053869;28;20175;-70
2022/03/16 06:25:08;;;;;;;13.90;12.50;;;;;;;0.79;100.00;101575.00;5054163;28;20722;-70
2022/03/16 06:27:33;;;;;;;17.57;12.33;;;;;;;0.86;100.00;101578.44;5053665;28;20175;-74
2022/03/16 06:29:58;;;;;;;13.33;12.03;;;;;;;0.73;100.00;101574.03;5053755;28;20191;-73
2022/03/16 06:32:24;;;;;;;11.23;10.13;;;;;;;0.60;100.00;101574.13;5053797;28;20172;-73
2022/03/16 06:34:49;;;;;;;10.00;9.00;;;;;;;0.48;100.00;101578.53;5053872;28;20198;-72
2022/03/16 06:37:14;;;;;;;10.23;9.23;;;;;;;0.35;100.00;101586.69;5053644;28;20171;-73
2022/03/16 06:39:41;;;;;;;11.33;10.23;;;;;;;0.33;100.00;101589.59;5053738;28;20202;-73
2022/03/16 06:42:07;;;;;;;19.43;11.33;;;;;;;0.30;100.00;101598.09;5053739;28;20286;-72
2022/03/16 06:44:32;;;;;;;9.07;8.27;;;;;;;0.29;100.00;101596.44;5053432;28;20175;-72
2022/03/16 06:46:57;;;;;;;11.20;7.37;;;;;;;0.29;100.00;101599.94;5053481;28;20175;-72
2022/03/16 06:49:23;;;;;;;8.30;7.50;;;;;;;0.27;100.00;101593.09;5053763;28;20199;-73
2022/03/16 06:51:48;;;;;;;19.57;10.10;;;;;;;0.29;100.00;101593.75;5053549;28;20163;-73
2022/03/16 06:54:13;;;;;;;9.00;8.17;;;;;;;0.37;100.00;101604.22;5035408;28;20190;-72
2022/03/16 06:56:39;;;;;;;9.77;8.77;;;;;;;0.43;100.00;101599.84;5053460;28;20186;-72
2022/03/16 06:59:04;;;;;;;13.93;12.53;;;;;;;0.53;100.00;101600.22;5051341;28;20183;-74
2022/03/16 07:01:29;;;;;;;18.00;12.73;;;;;;;0.63;100.00;101594.38;5051042;28;20183;-74
2022/03/16 07:03:55;;;;;;;19.77;14.67;;;;;;;0.77;100.00;101609.38;5053268;28;20175;-76
2022/03/16 07:06:20;;;;;;;18.17;15.27;;;;;;;0.92;100.00;101612.56;5053223;28;20179;-74
2022/03/16 07:08:46;;;;;;;19.83;15.20;;;;;;;1.01;100.00;101610.41;5049618;28;20313;-73
2022/03/16 07:11:12;;;;;;;17.07;15.40;;;;;;;1.07;100.00;101618.44;5053134;28;20228;-72
2022/03/16 07:13:41;;;;;;;14.57;13.23;;;;;;;1.16;100.00;101622.53;5052935;28;20187;-72
2022/03/16 07:16:07;;;;;;;17.17;15.17;;;;;;;1.23;100.00;101618.94;5053002;28;20438;-72
2022/03/16 07:18:32;;;;;;;18.57;15.23;;;;;;;1.13;100.00;101622.94;5052765;28;20194;-72
2022/03/16 07:20:58;;;;;;;22.57;15.73;;;;;;;1.14;100.00;101616.50;5052793;28;20191;-72
2022/03/16 07:23:23;;;;;;;31.50;17.30;;;;;;;1.12;100.00;101620.47;5052884;28;20175;-72
2022/03/16 07:25:49;;;;;;;18.17;16.10;;;;;;;1.14;100.00;101623.75;5052867;28;20229;-72
2022/03/16 07:28:16;;;;;;;24.77;16.73;;;;;;;1.17;100.00;101621.47;5052646;28;20525;-72
2022/03/16 07:30:43;;;;;;;17.83;16.07;;;;;;;1.25;100.00;101623.06;5052660;28;20803;-71
2022/03/16 07:33:09;;;;;;;20.33;16.90;;;;;;;1.28;100.00;101629.84;5052627;28;20179;-72
2022/03/16 07:35:36;;;;;;;18.83;17.00;;;;;;;1.39;100.00;101631.84;5052331;28;20190;-71
2022/03/16 07:38:02;;;;;;;21.23;17.53;;;;;;;1.34;100.00;101632.50;5051922;28;20623;-73
2022/03/16 07:40:30;;;;;;;21.03;17.17;;;;;;;1.55;100.00;101630.44;5051935;28;20198;-72
2022/03/16 07:42:55;;;;;;;19.10;15.93;;;;;;;1.86;100.00;101641.09;5050865;28;20179;-73
2022/03/16 07:45:21;;;;;;;20.03;17.43;;;;;;;1.97;100.00;101647.59;5052187;28;20258;-73
2022/03/16 07:47:47;;;;;;;21.83;17.33;;;;;;;1.99;100.00;101642.81;5052253;28;20184;-72
2022/03/16 07:50:12;;;;;;;20.57;16.77;;;;;;;2.15;100.00;101649.47;5052297;28;20607;-73
2022/03/16 07:52:38;;;;;;;19.13;17.17;;;;;;;2.18;100.00;101657.94;5052380;28;20187;-73
2022/03/16 07:55:06;;;;;;;20.47;17.93;;;;;;;2.39;100.00;101646.69;5052299;28;20190;-73
2022/03/16 07:57:32;;;;;;;27.60;19.30;;;;;;;2.57;100.00;101653.06;5052039;28;20164;-73
2022/03/16 07:59:57;;;;;;;27.93;20.13;;;;;;;2.77;100.00;101653.66;5052218;28;20178;-73
2022/03/16 08:02:23;;;;;;;24.43;19.77;;;;;;;2.88;100.00;101652.84;5052060;28;20182;-72
2022/03/16 08:04:48;;;;;;;36.10;17.37;;;;;;;2.93;100.00;101652.97;5052102;28;20185;-75
2022/03/16 08:07:13;;;;;;;25.03;18.60;;;;;;;2.99;100.00;101660.16;5051983;28;20166;-73
2022/03/16 08:09:39;;;;;;;20.57;18.37;;;;;;;3.08;100.00;101662.53;5051979;28;20777;-76
2022/03/16 08:12:04;;;;;;;27.23;19.20;;;;;;;3.14;100.00;101662.41;5051967;28;20228;-74
2022/03/16 08:14:30;;;;;;;24.03;18.93;;;;;;;3.03;100.00;101660.50;5051981;28;20175;-75
2022/03/16 08:16:55;;;;;;;28.47;20.20;;;;;;;3.01;100.00;101654.50;5052100;28;20167;-74
2022/03/16 08:19:21;;;;;;;30.70;21.37;;;;;;;3.01;100.00;101659.09;5051904;28;20771;-77
2022/03/16 08:21:47;;;;;;;33.07;21.00;;;;;;;3.13;100.00;101665.34;5051895;28;20179;-72
2022/03/16 08:24:13;;;;;;;28.13;21.13;;;;;;;3.26;100.00;101662.44;5051749;28;20666;-72
2022/03/16 08:26:38;;;;;;;28.80;19.13;;;;;;;3.44;100.00;101672.31;5051707;28;20225;-72
2022/03/16 08:29:04;;;;;;;22.80;16.93;;;;;;;3.50;100.00;101674.09;5051389;28;20207;-72
2022/03/16 08:31:29;;;;;;;25.30;19.07;;;;;;;3.54;100.00;101669.88;5051795;28;20182;-74
2022/03/16 08:33:56;;;;;;;13.70;12.30;;;;;;;3.62;100.00;101676.78;5051617;28;20527;-73
2022/03/16 08:36:21;;;;;;;18.73;16.53;;;;;;;3.54;100.00;101670.69;5051757;28;20182;-73
2022/03/16 08:38:47;;;;;;;31.03;18.63;;;;;;;3.63;100.00;101676.56;5051551;28;20257;-73
2022/03/16 08:41:12;;;;;;;26.60;18.63;;;;;;;3.79;100.00;101673.16;5051411;28;20172;-71
2022/03/16 08:43:38;;;;;;;26.87;20.50;;;;;;;3.99;100.00;101680.88;5051483;28;20531;-74
2022/03/16 08:46:04;;;;;;;27.10;19.30;;;;;;;4.12;100.00;101680.63;5051370;28;20275;-74
2022/03/16 08:48:29;;;;;;;30.93;21.03;;;;;;;4.25;100.00;101674.16;5051195;28;20190;-71
2022/03/16 08:50:55;;;;;;;32.70;20.50;;;;;;;4.50;100.00;101681.13;5051287;28;20171;-71
2022/03/16 08:53:20;;;;;;;47.20;24.87;;;;;;;4.89;100.00;101690.25;5051353;28;20178;-72
2022/03/16 08:55:46;;;;;;;40.03;22.37;;;;;;;5.26;100.00;101691.47;5051828;28;20270;-73
2022/03/16 08:58:14;;;;;;;43.93;24.47;;;;;;;5.50;100.00;101683.22;5051017;28;20175;-74
2022/03/16 09:00:39;;;;;;;40.00;23.83;;;;;;;5.60;100.00;101696.91;5051249;28;20178;-71
2022/03/16 09:03:05;;;;;;;37.20;20.77;;;;;;;5.74;100.00;101687.34;5051354;28;20520;-71
2022/03/16 09:05:30;;;;;;;40.90;22.27;;;;;;;5.92;100.00;101689.81;5050985;28;20659;-71
2022/03/16 09:07:55;;;;;;;43.47;24.30;;;;;;;6.07;100.00;101691.09;5051046;28;20182;-70
2022/03/16 09:10:21;;;;;;;58.13;27.27;;;;;;;6.22;100.00;101694.03;5050779;28;20289;-71
2022/03/16 09:12:46;;;;;;;44.50;25.13;;;;;;;6.42;100.00;101697.00;5051021;28;20175;-71
2022/03/16 09:15:12;;;;;;;51.70;24.07;;;;;;;6.64;100.00;101702.41;5050944;28;20627;-70
2022/03/16 09:17:37;;;;;;;51.93;25.77;;;;;;;6.82;100.00;101709.44;5050753;28;20182;-72
2022/03/16 09:20:04;;;;;;;41.60;24.00;;;;;;;6.96;100.00;101726.97;5050341;28;20175;-71
2022/03/16 09:22:29;;;;;;;40.23;23.60;;;;;;;6.85;100.00;101720.59;5047213;28;20199;-70
2022/03/16 09:24:58;;;;;;;30.37;22.10;;;;;;;6.78;100.00;101727.28;5050426;28;20175;-71
2022/03/16 09:27:25;;;;;;;30.07;19.80;;;;;;;6.70;100.00;101722.31;5050593;28;20211;-72
2022/03/16 09:29:50;;;;;;;36.03;23.20;;;;;;;6.80;100.00;101722.44;5050362;28;20226;-71
2022/03/16 09:32:16;;;;;;;34.93;22.13;;;;;;;6.69;100.00;101724.22;5050228;28;20596;-71
2022/03/16 09:34:42;;;;;;;31.23;21.10;;;;;;;6.75;100.00;101719.66;5040236;28;20543;-71
2022/03/16 09:37:09;;;;;;;34.90;21.83;;;;;;;6.85;100.00;101709.72;5030005;28;20214;-71
2022/03/16 09:39:35;;;;;;;31.40;21.30;;;;;;;6.97;100.00;101715.03;5035245;28;20266;-72
2022/03/16 09:42:03;;;;;;;35.67;24.97;;;;;;;6.97;100.00;101717.72;5049864;28;20626;-71
2022/03/16 09:44:30;;;;;;;29.63;21.03;;;;;;;7.11;100.00;101718.97;5049582;28;20216;-70
2022/03/16 09:46:57;;;;;;;33.53;21.03;;;;;;;7.13;100.00;101718.72;5048283;28;20275;-72
2022/03/16 09:49:23;;;;;;;30.27;20.53;;;;;;;7.15;100.00;101714.66;5047003;28;20231;-70
2022/03/16 09:51:53;;;;;;;26.47;20.67;;;;;;;7.19;100.00;101714.13;5050187;28;20179;-71
2022/03/16 09:54:20;;;;;;;24.70;21.93;;;;;;;7.19;100.00;101719.56;5050156;28;20689;-71
2022/03/16 09:56:46;;;;;;;27.87;21.50;;;;;;;7.21;100.00;101717.41;5050008;28;20179;-70
2022/03/16 09:59:11;;;;;;;27.87;20.77;;;;;;;7.30;100.00;101715.88;5050360;28;20540;-71
2022/03/16 10:01:37;;;;;;;31.30;21.83;;;;;;;7.27;100.00;101706.34;5050405;28;20179;-70
2022/03/16 10:04:05;;;;;;;24.87;19.80;;;;;;;7.38;100.00;101709.97;5050569;28;20246;-71
2022/03/16 10:06:31;;;;;;;30.10;21.47;;;;;;;7.55;100.00;101710.66;5052153;28;20518;-71
2022/03/16 10:15:00;;;;;;;30.77;22.80;;;;;;;7.50;100.00;101690.75;5008520;28;20414;-70
2022/03/16 10:17:44;;;;;;;30.53;21.03;;;;;;;7.61;100.00;101693.28;5037582;28;20187;-70
2022/03/16 10:20:21;;;;;;;25.53;19.33;;;;;;;7.68;100.00;101695.81;5050528;28;20171;-71
2022/03/16 10:23:10;;;;;;;26.77;20.00;;;;;;;7.76;100.00;101695.28;5050266;28;20512;-70
2022/03/16 10:25:43;;;;;;;27.17;19.37;;;;;;;7.90;100.00;101692.94;5050266;28;20238;-70
2022/03/16 10:28:12;;;;;;;21.63;18.30;;;;;;;7.98;100.00;101697.91;5050202;28;20187;-70
2022/03/16 10:30:57;;;;;;;29.63;18.87;;;;;;;8.24;99.15;101688.75;5050403;28;20643;-71
2022/03/16 10:33:55;;;;;;;25.60;19.17;;;;;;;8.35;96.96;101686.94;5050073;28;20168;-71
2022/03/16 10:36:28;;;;;;;23.37;18.13;;;;;;;8.43;95.82;101697.34;5051693;28;20172;-70
2022/03/16 10:38:58;;;;;;;19.63;17.10;;;;;;;8.24;94.77;101696.13;5053936;28;20159;-71
2022/03/16 10:47:00;;;;;;;21.07;16.90;;;;;;;8.69;93.94;101684.63;5053772;28;20270;-70
2022/03/16 10:49:30;;;;;;;23.63;17.33;;;;;;;8.73;92.92;101674.84;5053516;28;20222;-71
2022/03/16 10:52:09;;;;;;;16.73;14.90;;;;;;;8.72;91.18;101669.66;5053521;28;20174;-71
2022/03/16 10:54:36;;;;;;;18.30;16.33;;;;;;;8.81;89.83;101668.84;5053014;28;20175;-70
2022/03/16 10:57:02;;;;;;;16.00;14.50;;;;;;;8.86;88.59;101668.06;5052598;28;20523;-70
2022/03/16 10:59:30;;;;;;;16.17;13.50;;;;;;;9.01;87.90;101662.63;5053030;28;20179;-71
2022/03/16 11:02:01;;;;;;;16.67;14.67;;;;;;;9.13;86.68;101665.91;5052831;28;20202;-71
2022/03/16 11:04:29;;;;;;;21.70;15.23;;;;;;;9.20;86.93;101665.63;5035111;28;20171;-70
2022/03/16 11:06:56;;;;;;;18.80;15.33;;;;;;;9.43;87.12;101662.38;5052840;28;20175;-70
2022/03/16 11:09:23;;;;;;;15.37;13.87;;;;;;;9.63;86.21;101663.44;5052840;28;20207;-71
2022/03/16 11:14:34;;;;;;;16.80;13.07;;;;;;;9.66;82.64;101654.69;5052726;28;20237;-71
2022/03/16 11:17:01;;;;;;;15.37;13.13;;;;;;;9.86;82.96;101660.13;5052341;28;20198;-72
2022/03/16 11:19:29;;;;;;;16.07;14.27;;;;;;;9.82;81.73;101664.47;5052124;28;20225;-70